createdAt,value
2023-01-09T00:00:47.078Z,12.65
2023-01-09T00:03:14.102Z,13.88
2023-01-09T00:05:41.144Z,13.10
2023-01-09T00:08:08.372Z,12.65
2023-01-09T00:10:35.472Z,14.20
2023-01-09T00:13:02.468Z,14.40
2023-01-09T00:15:29.525Z,11.75
2023-01-09T00:17:56.394Z,13.23
2023-01-09T00:20:23.358Z,27.45
2023-01-09T00:22:50.138Z,11.75
2023-01-09T00:25:17.156Z,15.38
2023-01-09T00:27:44.121Z,12.60
2023-01-09T00:30:11.817Z,13.52
2023-01-09T00:32:38.795Z,13.02
2023-01-09T00:35:06.191Z,12.82
2023-01-09T00:37:33.061Z,13.75
2023-01-09T00:40:00.016Z,12.65
2023-01-09T00:42:31.239Z,12.88
2023-01-09T00:45:01.873Z,12.35
2023-01-09T00:47:36.967Z,12.45
2023-01-09T00:52:36.125Z,13.75
2023-01-09T00:55:04.094Z,26.00
2023-01-09T00:57:31.513Z,11.10
2023-01-09T00:59:59.443Z,19.73
2023-01-09T01:02:28.774Z,27.88
2023-01-09T01:05:14.396Z,28.20
2023-01-09T01:07:43.078Z,17.27
2023-01-09T01:10:17.217Z,15.43
2023-01-09T01:12:44.513Z,14.47
2023-01-09T01:15:11.683Z,15.27
2023-01-09T01:17:40.240Z,15.73
2023-01-09T01:20:10.454Z,39.33
2023-01-09T01:22:37.397Z,12.73
2023-01-09T01:25:05.809Z,13.60
2023-01-09T01:27:32.745Z,14.13
2023-01-09T01:29:59.652Z,12.57
2023-01-09T01:32:26.613Z,12.32
2023-01-09T01:34:54.371Z,13.35
2023-01-09T01:37:23.093Z,13.23
2023-01-09T01:39:50.022Z,13.90
2023-01-09T01:42:16.970Z,14.18
2023-01-09T01:45:12.426Z,13.90
2023-01-09T01:47:57.791Z,12.82
2023-01-09T01:53:01.205Z,15.85
2023-01-09T01:55:28.401Z,20.77
2023-01-09T01:58:01.756Z,52.70
2023-01-09T02:00:34.289Z,16.85
2023-01-09T02:03:02.398Z,16.42
2023-01-09T02:05:29.904Z,18.73
2023-01-09T02:07:56.716Z,18.90
2023-01-09T02:10:23.984Z,18.83
2023-01-09T02:12:51.079Z,18.23
2023-01-09T02:15:19.731Z,27.85
2023-01-09T02:18:11.140Z,16.83
2023-01-09T02:20:53.665Z,15.93
2023-01-09T02:24:02.039Z,15.60
2023-01-09T02:26:31.803Z,41.03
2023-01-09T02:28:58.685Z,39.97
2023-01-09T02:31:33.073Z,59.03
2023-01-09T02:34:41.659Z,43.25
2023-01-09T02:37:24.068Z,22.52
2023-01-09T02:40:09.920Z,40.42
2023-01-09T02:42:39.691Z,35.95
2023-01-09T02:45:06.657Z,23.77
2023-01-09T02:47:42.246Z,30.38
2023-01-09T02:50:15.640Z,20.58
2023-01-09T02:53:04.563Z,35.30
2023-01-09T02:55:40.479Z,27.00
2023-01-09T02:58:51.961Z,22.90
2023-01-09T03:01:21.881Z,26.63
2023-01-09T03:03:52.672Z,30.17
2023-01-09T03:06:26.980Z,26.35
2023-01-09T03:09:00.098Z,25.67
2023-01-09T03:11:30.852Z,25.15
2023-01-09T03:14:04.607Z,24.33
2023-01-09T03:16:37.746Z,22.17
2023-01-09T03:19:08.654Z,21.20
2023-01-09T03:21:36.195Z,34.55
2023-01-09T03:24:03.679Z,22.00
2023-01-09T03:26:31.321Z,29.38
2023-01-09T03:28:59.475Z,47.67
2023-01-09T03:31:26.524Z,24.38
2023-01-09T03:33:53.843Z,28.75
2023-01-09T03:36:21.996Z,37.63
2023-01-09T03:38:49.559Z,18.80
2023-01-09T03:41:16.532Z,18.90
2023-01-09T03:43:43.657Z,20.00
2023-01-09T03:46:10.654Z,20.38
2023-01-09T03:48:37.764Z,23.55
2023-01-09T03:51:04.675Z,24.48
2023-01-09T03:53:31.803Z,24.08
2023-01-09T03:55:59.266Z,23.20
2023-01-09T03:58:27.261Z,19.13
2023-01-09T04:01:03.317Z,21.88
2023-01-09T04:03:30.499Z,19.13
2023-01-09T04:05:59.826Z,21.55
2023-01-09T04:08:26.882Z,17.70
2023-01-09T04:10:53.704Z,21.60
2023-01-09T04:13:20.610Z,17.77
2023-01-09T04:15:47.394Z,15.43
2023-01-09T04:18:14.748Z,19.17
2023-01-09T04:20:42.604Z,16.63
2023-01-09T04:23:09.781Z,21.63
2023-01-09T04:25:36.716Z,14.90
2023-01-09T04:28:03.929Z,15.30
2023-01-09T04:30:30.861Z,18.95
2023-01-09T04:32:57.897Z,23.33
2023-01-09T04:35:24.887Z,17.95
2023-01-09T04:37:51.869Z,14.88
2023-01-09T04:40:19.694Z,21.45
2023-01-09T04:42:46.881Z,15.07
2023-01-09T04:45:15.863Z,13.80
2023-01-09T04:47:42.988Z,28.23
2023-01-09T04:50:11.642Z,16.83
2023-01-09T04:52:39.158Z,17.10
2023-01-09T04:55:08.027Z,16.42
2023-01-09T04:57:35.769Z,13.27
2023-01-09T05:00:04.997Z,11.40
2023-01-09T05:02:31.793Z,12.35
2023-01-09T05:04:58.754Z,10.40
2023-01-09T05:07:25.777Z,17.67
2023-01-09T05:09:52.687Z,11.82
2023-01-09T05:12:19.591Z,12.00
2023-01-09T05:14:46.549Z,20.60
2023-01-09T05:17:13.372Z,14.07
2023-01-09T05:19:40.105Z,8.77
2023-01-09T05:22:06.976Z,13.05
2023-01-09T05:24:34.061Z,8.50
2023-01-09T05:27:02.937Z,9.23
2023-01-09T05:29:29.803Z,7.68
2023-01-09T05:31:56.665Z,9.50
2023-01-09T05:34:23.668Z,13.25
2023-01-09T05:36:50.731Z,12.02
2023-01-09T05:39:17.589Z,9.93
2023-01-09T05:41:44.513Z,7.38
2023-01-09T05:44:11.401Z,8.25
2023-01-09T05:46:38.180Z,10.82
2023-01-09T05:49:05.054Z,21.40
2023-01-09T05:51:32.142Z,10.90
2023-01-09T05:53:59.957Z,17.25
2023-01-09T05:56:26.812Z,10.90
2023-01-09T05:58:53.670Z,9.68
2023-01-09T06:01:22.811Z,13.50
2023-01-09T06:03:50.385Z,9.95
2023-01-09T06:06:17.325Z,8.88
2023-01-09T06:08:44.183Z,14.60
2023-01-09T06:11:11.057Z,12.95
2023-01-09T06:13:37.978Z,11.25
2023-01-09T06:16:05.481Z,12.30
2023-01-09T06:18:32.375Z,9.57
2023-01-09T06:20:59.420Z,12.32
2023-01-09T06:23:26.366Z,8.93
2023-01-09T06:25:53.117Z,11.32
2023-01-09T06:28:20.006Z,14.43
2023-01-09T06:30:51.226Z,8.07
2023-01-09T06:33:18.337Z,10.15
2023-01-09T06:35:45.356Z,9.25
2023-01-09T06:38:12.546Z,10.13
2023-01-09T06:40:39.390Z,9.45
2023-01-09T06:43:06.702Z,10.55
2023-01-09T06:45:34.068Z,8.68
2023-01-09T06:48:00.860Z,9.73
2023-01-09T06:50:28.000Z,9.25
2023-01-09T06:52:55.063Z,9.95
2023-01-09T06:55:22.074Z,11.98
2023-01-09T06:57:49.165Z,10.68
2023-01-09T07:00:16.743Z,10.80
2023-01-09T07:02:43.424Z,10.48
2023-01-09T07:05:12.009Z,10.93
2023-01-09T07:07:39.952Z,9.98
2023-01-09T07:10:07.882Z,9.32
2023-01-09T07:12:34.765Z,7.13
2023-01-09T07:15:01.915Z,6.32
2023-01-09T07:17:28.740Z,5.65
2023-01-09T07:19:55.490Z,6.82
2023-01-09T07:22:22.348Z,7.65
2023-01-09T07:24:49.210Z,6.75
2023-01-09T07:27:16.317Z,7.22
2023-01-09T07:29:43.376Z,5.18
2023-01-09T07:32:10.357Z,5.78
2023-01-09T07:34:37.178Z,4.97
2023-01-09T07:37:04.092Z,5.65
2023-01-09T07:39:30.815Z,5.70
2023-01-09T07:41:57.754Z,4.97
2023-01-09T07:44:24.487Z,5.20
2023-01-09T07:46:51.419Z,6.63
2023-01-09T07:49:18.477Z,6.80
2023-01-09T07:51:46.241Z,7.07
2023-01-09T07:54:13.766Z,7.57
2023-01-09T07:56:41.223Z,6.80
2023-01-09T07:59:07.987Z,7.78
2023-01-09T08:01:34.984Z,10.63
2023-01-09T08:04:02.125Z,11.27
2023-01-09T08:06:29.577Z,16.08
2023-01-09T08:08:56.383Z,18.13
2023-01-09T08:11:23.833Z,8.40
2023-01-09T08:13:51.476Z,7.68
2023-01-09T08:16:18.660Z,7.68
2023-01-09T08:18:45.348Z,10.57
2023-01-09T08:21:12.603Z,7.93
2023-01-09T08:23:39.654Z,11.57
2023-01-09T08:26:06.774Z,12.05
2023-01-09T08:28:33.558Z,12.63
2023-01-09T08:31:00.495Z,13.98
2023-01-09T08:33:29.254Z,7.53
2023-01-09T08:35:56.306Z,7.35
2023-01-09T08:38:23.433Z,7.68
2023-01-09T08:40:50.460Z,8.07
2023-01-09T08:43:36.019Z,6.80
2023-01-09T08:46:03.041Z,8.48
2023-01-09T08:48:29.875Z,12.52
2023-01-09T08:50:56.854Z,9.30
2023-01-09T08:53:23.878Z,8.98
2023-01-09T08:55:50.794Z,9.52
2023-01-09T08:58:17.780Z,11.38
2023-01-09T09:00:44.748Z,14.88
2023-01-09T09:03:12.344Z,14.38
2023-01-09T09:05:39.386Z,12.65
2023-01-09T09:08:07.397Z,11.20
2023-01-09T09:10:34.154Z,10.60
2023-01-09T09:13:01.917Z,7.47
2023-01-09T09:15:29.244Z,10.32
2023-01-09T09:17:58.661Z,7.18
2023-01-09T09:20:28.750Z,12.05
2023-01-09T09:22:55.831Z,9.90
2023-01-09T09:25:24.116Z,9.65
2023-01-09T09:27:52.209Z,9.30
2023-01-09T09:30:20.333Z,11.82
2023-01-09T09:32:47.495Z,12.45
2023-01-09T09:35:14.766Z,11.23
2023-01-09T09:37:42.248Z,7.95
2023-01-09T09:40:20.517Z,9.35
2023-01-09T09:43:33.530Z,7.85
2023-01-09T09:46:14.639Z,8.82
2023-01-09T09:48:52.320Z,11.73
2023-01-09T09:51:51.044Z,12.55
2023-01-09T09:54:34.408Z,7.40
2023-01-09T09:57:04.075Z,7.40
2023-01-09T09:59:34.649Z,14.27
2023-01-09T10:02:16.124Z,11.32
2023-01-09T10:04:51.585Z,9.13
2023-01-09T10:07:27.550Z,7.82
2023-01-09T10:10:00.150Z,24.73
2023-01-09T10:12:46.196Z,23.77
2023-01-09T10:15:29.975Z,8.05
2023-01-09T10:18:05.581Z,17.60
2023-01-09T10:20:51.048Z,7.68
2023-01-09T10:26:08.954Z,7.20
2023-01-09T10:28:54.316Z,5.70
2023-01-09T10:31:30.522Z,12.45
2023-01-09T10:34:28.421Z,8.75
2023-01-09T10:37:01.652Z,7.75
2023-01-09T10:40:10.132Z,8.32
2023-01-09T10:42:52.914Z,20.75
2023-01-09T10:45:25.609Z,10.75
2023-01-09T10:48:01.104Z,31.15
2023-01-09T10:50:33.547Z,28.95
2023-01-09T10:53:05.118Z,13.07
2023-01-09T10:55:47.937Z,29.10
2023-01-09T10:58:20.054Z,22.50
2023-01-09T11:00:49.277Z,18.55
2023-01-09T11:03:19.224Z,8.52
2023-01-09T11:05:55.187Z,7.13
2023-01-09T11:08:43.454Z,6.68
2023-01-09T11:11:11.018Z,6.20
2023-01-09T11:13:47.023Z,5.80
2023-01-09T11:16:22.290Z,6.10
2023-01-09T11:18:53.952Z,6.78
2023-01-09T11:21:36.189Z,6.30
2023-01-09T11:24:21.692Z,6.25
2023-01-09T11:29:26.713Z,5.65
2023-01-09T11:31:59.101Z,7.00
2023-01-09T11:34:29.266Z,6.25
2023-01-09T11:37:10.969Z,8.10
2023-01-09T11:39:41.999Z,6.28
2023-01-09T11:42:20.405Z,6.70
2023-01-09T11:44:47.297Z,7.18
2023-01-09T11:47:39.478Z,14.75
2023-01-09T11:50:20.987Z,8.45
2023-01-09T11:53:13.184Z,19.92
2023-01-09T11:55:42.908Z,18.42
2023-01-09T11:58:19.535Z,14.43
2023-01-09T12:03:32.377Z,11.48
2023-01-09T12:06:01.995Z,21.45
2023-01-09T12:08:28.842Z,54.35
2023-01-09T12:11:10.198Z,22.23
2023-01-09T12:13:44.126Z,34.83
2023-01-09T12:16:23.263Z,16.38
2023-01-09T12:19:01.711Z,28.48
2023-01-09T12:21:35.982Z,8.85
2023-01-09T12:24:21.322Z,13.50
2023-01-09T12:29:41.937Z,16.92
2023-01-09T12:32:38.031Z,26.90
2023-01-09T12:35:19.698Z,20.73
2023-01-09T12:38:09.669Z,14.00
2023-01-09T12:40:57.782Z,25.45
2023-01-09T12:43:48.560Z,13.98
2023-01-09T12:46:19.725Z,14.35
2023-01-09T12:49:13.622Z,12.05
2023-01-09T12:51:49.158Z,24.65
2023-01-09T12:54:46.376Z,12.98
2023-01-09T12:57:30.539Z,9.57
2023-01-09T13:00:06.280Z,10.93
2023-01-09T13:02:45.495Z,17.77
2023-01-09T13:05:16.028Z,10.48
2023-01-09T13:07:48.009Z,21.92
2023-01-09T13:11:05.584Z,12.40
2023-01-09T13:13:50.141Z,9.32
2023-01-09T13:16:32.423Z,15.90
2023-01-09T13:19:46.509Z,13.52
2023-01-09T13:22:16.100Z,16.25
2023-01-09T13:25:07.784Z,13.18
2023-01-09T13:27:40.717Z,10.48
2023-01-09T13:30:13.810Z,9.45
2023-01-09T13:32:59.667Z,17.60
2023-01-09T13:35:26.759Z,10.48
2023-01-09T13:37:54.347Z,8.30
2023-01-09T13:40:21.365Z,15.10
2023-01-09T13:43:06.807Z,11.52
2023-01-09T13:48:11.323Z,11.60
2023-01-09T13:50:39.632Z,9.93
2023-01-09T13:53:18.780Z,13.68
2023-01-09T13:55:58.572Z,14.02
2023-01-09T13:58:25.900Z,15.55
2023-01-09T14:00:55.860Z,10.40
2023-01-09T14:03:33.309Z,23.20
2023-01-09T14:06:00.500Z,19.73
2023-01-09T14:08:30.385Z,15.85
2023-01-09T14:11:04.872Z,13.27
2023-01-09T14:13:38.718Z,8.60
2023-01-09T14:16:20.611Z,13.43
2023-01-09T14:18:52.485Z,10.45
2023-01-09T14:21:20.232Z,16.90
2023-01-09T14:24:06.504Z,14.48
2023-01-09T14:26:49.440Z,19.40
2023-01-09T14:29:31.639Z,25.42
2023-01-09T14:32:23.152Z,13.93
2023-01-09T14:34:58.165Z,18.50
2023-01-09T14:39:58.642Z,11.88
2023-01-09T14:42:29.639Z,14.13
2023-01-09T14:45:03.266Z,14.45
2023-01-09T14:47:47.672Z,16.25
2023-01-09T14:50:34.341Z,11.73
2023-01-09T14:53:06.428Z,18.55
2023-01-09T14:55:52.984Z,17.98
2023-01-09T14:58:23.713Z,17.95
2023-01-09T15:01:18.982Z,21.67
2023-01-09T15:03:59.167Z,22.48
2023-01-09T15:06:29.908Z,36.35
2023-01-09T15:09:02.283Z,23.33
2023-01-09T15:11:29.755Z,48.25
2023-01-09T15:14:00.346Z,45.08
2023-01-09T15:16:27.974Z,39.17
2023-01-09T15:18:59.904Z,66.20
2023-01-09T15:21:31.222Z,30.27
2023-01-09T15:24:22.130Z,17.67
2023-01-09T15:26:54.491Z,16.15
2023-01-09T15:29:21.784Z,23.58
2023-01-09T15:31:53.682Z,19.73
2023-01-09T15:34:23.386Z,18.92
2023-01-09T15:36:52.871Z,21.00
2023-01-09T15:39:25.880Z,16.05
2023-01-09T15:42:17.213Z,13.52
2023-01-09T15:44:47.725Z,14.93
2023-01-09T15:47:20.350Z,14.00
2023-01-09T15:49:48.098Z,14.15
2023-01-09T15:52:17.129Z,13.07
2023-01-09T15:54:49.313Z,14.13
2023-01-09T15:57:25.403Z,11.90
2023-01-09T15:59:53.223Z,14.50
2023-01-09T16:02:40.906Z,12.95
2023-01-09T16:05:14.252Z,12.48
2023-01-09T16:07:48.967Z,11.85
2023-01-09T16:10:25.102Z,12.93
2023-01-09T16:12:53.033Z,14.32
2023-01-09T16:15:20.597Z,13.55
2023-01-09T16:18:33.572Z,14.82
2023-01-09T16:21:21.820Z,14.57
2023-01-09T16:24:13.984Z,15.48
2023-01-09T16:26:41.264Z,15.23
2023-01-09T16:29:37.392Z,16.25
2023-01-09T16:32:06.702Z,15.75
2023-01-09T16:34:35.424Z,15.73
2023-01-09T16:37:04.579Z,17.52
2023-01-09T16:39:31.652Z,16.88
2023-01-09T16:42:17.027Z,16.77
2023-01-09T16:47:12.557Z,16.67
2023-01-09T16:49:39.498Z,17.70
2023-01-09T16:52:15.534Z,17.35
2023-01-09T16:54:44.054Z,16.15
2023-01-09T16:57:16.897Z,18.27
2023-01-09T16:59:43.997Z,17.42
2023-01-09T17:02:20.124Z,16.92
2023-01-09T17:04:47.217Z,17.17
2023-01-09T17:07:16.614Z,17.08
2023-01-09T17:09:44.304Z,16.27
2023-01-09T17:12:20.507Z,15.88
2023-01-09T17:14:48.628Z,16.48
2023-01-09T17:17:16.916Z,15.40
2023-01-09T17:19:45.837Z,16.42
2023-01-09T17:22:13.425Z,17.10
2023-01-09T17:24:59.020Z,16.17
2023-01-09T17:27:53.389Z,15.18
2023-01-09T17:30:21.458Z,13.90
2023-01-09T17:32:48.988Z,15.25
2023-01-09T17:35:16.367Z,14.80
2023-01-09T17:37:43.551Z,14.88
2023-01-09T17:40:16.784Z,14.90
2023-01-09T17:42:43.664Z,14.15
2023-01-09T17:45:10.942Z,13.70
2023-01-09T17:47:37.884Z,12.05
2023-01-09T17:50:05.920Z,12.27
2023-01-09T17:52:33.418Z,13.70
2023-01-09T17:55:05.480Z,12.25
2023-01-09T17:57:33.214Z,11.48
2023-01-09T18:00:00.160Z,11.35
2023-01-09T18:02:26.961Z,11.63
2023-01-09T18:04:53.701Z,11.15
2023-01-09T18:07:20.869Z,11.80
2023-01-09T18:09:47.828Z,11.20
2023-01-09T18:12:14.798Z,10.63
2023-01-09T18:14:42.398Z,11.10
2023-01-09T18:17:12.657Z,12.15
2023-01-09T18:19:39.713Z,12.77
2023-01-09T18:22:06.696Z,11.10
2023-01-09T18:24:33.440Z,12.23
2023-01-09T18:27:00.516Z,12.23
2023-01-09T18:29:27.508Z,11.40
2023-01-09T18:31:54.293Z,11.85
2023-01-09T18:34:21.419Z,12.15
2023-01-09T18:36:48.274Z,12.32
2023-01-09T18:39:15.000Z,11.52
2023-01-09T18:41:42.611Z,12.52
2023-01-09T18:44:09.969Z,12.52
2023-01-09T18:46:39.535Z,12.85
2023-01-09T18:49:07.120Z,12.65
2023-01-09T18:51:36.583Z,14.43
2023-01-09T18:54:04.571Z,13.32
2023-01-09T18:56:31.637Z,15.43
2023-01-09T18:58:58.975Z,14.38
2023-01-09T19:01:28.163Z,14.93
2023-01-09T19:04:00.067Z,15.90
2023-01-09T19:06:28.441Z,16.40
2023-01-09T19:08:55.269Z,16.63
2023-01-09T19:11:22.222Z,17.63
2023-01-09T19:13:50.763Z,16.33
2023-01-09T19:16:18.410Z,16.75
2023-01-09T19:18:46.217Z,17.58
2023-01-09T19:21:23.846Z,17.77
2023-01-09T19:23:50.776Z,16.25
2023-01-09T19:26:23.993Z,16.73
2023-01-09T19:28:55.053Z,15.80
2023-01-09T19:31:24.776Z,16.10
2023-01-09T19:33:52.756Z,16.45
2023-01-09T19:36:20.235Z,17.27
2023-01-09T19:38:47.184Z,16.20
2023-01-09T19:41:20.963Z,14.60
2023-01-09T19:43:48.349Z,14.55
2023-01-09T19:46:19.226Z,13.20
2023-01-09T19:48:47.295Z,13.23
2023-01-09T19:51:16.122Z,14.63
2023-01-09T19:53:43.211Z,12.68
2023-01-09T19:56:12.701Z,13.15
2023-01-09T19:58:40.939Z,11.27
2023-01-09T20:01:16.371Z,11.65
2023-01-09T20:03:45.379Z,11.30
2023-01-09T20:06:17.997Z,10.65
2023-01-09T20:08:47.796Z,9.93
2023-01-09T20:11:15.989Z,9.20
2023-01-09T20:13:44.777Z,9.27
2023-01-09T20:16:21.167Z,8.88
2023-01-09T20:18:48.837Z,8.65
2023-01-09T20:24:00.634Z,7.57
2023-01-09T20:26:28.279Z,6.55
2023-01-09T20:28:56.210Z,6.85
2023-01-09T20:31:25.408Z,6.18
2023-01-09T20:33:52.434Z,7.15
2023-01-09T20:36:22.384Z,6.78
2023-01-09T20:38:49.394Z,6.18
2023-01-09T20:41:23.784Z,6.88
2023-01-09T20:43:51.844Z,6.93
2023-01-09T20:46:19.911Z,6.45
2023-01-09T20:48:47.288Z,6.07
2023-01-09T20:51:14.613Z,5.80
2023-01-09T20:53:46.274Z,7.25
2023-01-09T20:56:13.582Z,6.88
2023-01-09T20:58:42.654Z,5.63
2023-01-09T21:01:13.719Z,5.68
2023-01-09T21:03:42.418Z,5.57
2023-01-09T21:06:12.309Z,5.20
2023-01-09T21:08:39.616Z,4.75
2023-01-09T21:11:06.592Z,5.75
2023-01-09T21:13:33.552Z,5.82
2023-01-09T21:16:06.672Z,5.70
2023-01-09T21:18:34.914Z,5.90
2023-01-09T21:21:04.583Z,5.85
2023-01-09T21:23:31.941Z,5.88
2023-01-09T21:25:59.996Z,5.45
2023-01-09T21:28:27.711Z,5.95
2023-01-09T21:30:54.720Z,6.50
2023-01-09T21:33:22.051Z,5.60
2023-01-09T21:35:56.674Z,5.90
2023-01-09T21:38:25.073Z,6.28
2023-01-09T21:40:53.375Z,6.05
2023-01-09T21:43:47.560Z,5.78
2023-01-09T21:46:35.226Z,6.10
2023-01-09T21:49:06.450Z,5.38
2023-01-09T21:51:39.035Z,6.05
2023-01-09T21:54:06.023Z,6.07
2023-01-09T21:56:33.113Z,6.45
2023-01-09T21:59:00.204Z,5.50
2023-01-09T22:01:27.709Z,5.20
2023-01-09T22:03:55.647Z,4.97
2023-01-09T22:06:23.210Z,5.68
2023-01-09T22:08:50.201Z,5.03
2023-01-09T22:11:17.393Z,4.38
2023-01-09T22:13:48.468Z,4.55
2023-01-09T22:16:15.362Z,4.25
2023-01-09T22:18:42.375Z,5.05
2023-01-09T22:21:09.461Z,4.68
2023-01-09T22:23:36.585Z,4.53
2023-01-09T22:26:09.023Z,4.18
2023-01-09T22:28:36.075Z,3.80
2023-01-09T22:31:03.139Z,4.00
2023-01-09T22:33:30.364Z,3.97
2023-01-09T22:35:57.074Z,4.95
2023-01-09T22:38:23.991Z,4.22
2023-01-09T22:40:50.903Z,3.45
2023-01-09T22:43:17.776Z,3.58
2023-01-09T22:45:44.804Z,3.47
2023-01-09T22:48:11.832Z,3.13
2023-01-09T22:50:38.552Z,2.78
2023-01-09T22:53:05.572Z,2.80
2023-01-09T22:55:32.735Z,2.50
2023-01-09T22:57:59.898Z,2.80
2023-01-09T23:00:26.930Z,2.70
2023-01-09T23:02:56.266Z,3.72
2023-01-09T23:05:23.308Z,3.10
2023-01-09T23:07:50.216Z,3.42
2023-01-09T23:10:17.792Z,3.53
2023-01-09T23:12:48.500Z,3.92
2023-01-09T23:15:15.444Z,3.50
2023-01-09T23:17:42.345Z,3.55
2023-01-09T23:20:10.591Z,3.22
2023-01-09T23:22:37.556Z,2.97
2023-01-09T23:25:04.799Z,3.10
2023-01-09T23:27:31.911Z,2.97
2023-01-09T23:29:58.762Z,2.55
2023-01-09T23:32:25.765Z,2.53
2023-01-09T23:34:53.146Z,2.90
2023-01-09T23:37:20.109Z,2.80
2023-01-09T23:39:47.081Z,2.85
2023-01-09T23:42:32.780Z,2.83
2023-01-09T23:44:59.753Z,2.70
2023-01-09T23:47:26.972Z,2.50
2023-01-09T23:49:53.785Z,2.58
2023-01-09T23:52:20.720Z,2.67
2023-01-09T23:54:47.673Z,2.50
2023-01-09T23:57:14.456Z,2.58
2023-01-09T23:59:41.450Z,2.55
